ZLXY/XIY METAR and TAF weather

Enter ICAO airport designator
Station Type Date Time Source
ZLXY METAR 2019/06/17 05:00 UTC NOAA

ZLXY 170500Z 14002MPS 070V210 CAVOK 29/16 Q1009 NOSIG


Station Type Date Time Source
ZLXY Decoded METAR 2019/06/17 05:00 UTC NOAA

Xian/Xianyang, China (ZLXY) 34-26N 108-45E
Jun 17, 2019 - 01:00 AM EDT / 2019.06.17 0500 UTC
Wind: from the SE (140 degrees) at 4 MPH (4 KT) (direction variable):0
Visibility: greater than 7 mile(s):0
Temperature: 84 F (29 C)
Dew Point: 60 F (16 C)
Relative Humidity: 45%
Pressure (altimeter): 29.80 in. Hg (1009 hPa)
ob: ZLXY 170500Z 14002MPS 070V210 CAVOK 29/16 Q1009 NOSIG
cycle: 5

Station Type Date Time Source
ZLXY TAF 2019/06/17 06:03 UTC NOAA

TAF ZLXY 170305Z 1706/1806 06003MPS 4000 HZ NSC TX30/1707Z TN21/1721Z

Example: see airport list